Time;durP1;ratioP1;P1;durP2;ratioP2;P2;SDS_P1;SDS_P2;PMS_P1;PMS_P2;Temp;Humidity;BMP_temperature;BMP_pressure;BME280_temperature;BME280_humidity;BME280_pressure;Samples;Min_cycle;Max_cycle;Signal;HPM_P1;HPM_P2
2023/04/21 00:02:04;;;;;;;18.33;16.40;;;6.70;99.90;;;;;;5053116;28;20163;-70
2023/04/21 00:04:31;;;;;;;22.73;19.53;;;6.70;99.90;;;;;;5054762;28;20666;-70
2023/04/21 00:07:00;;;;;;;18.10;15.97;;;6.70;99.90;;;;;;5053400;28;20159;-70
2023/04/21 00:12:06;;;;;;;19.00;17.00;;;6.80;99.90;;;;;;5017419;28;20450;-68
2023/04/21 00:14:31;;;;;;;19.60;17.50;;;6.80;99.90;;;;;;5034780;28;20390;-68
2023/04/21 00:16:59;;;;;;;17.43;15.63;;;6.70;99.90;;;;;;5016635;28;20238;-68
2023/04/21 00:19:24;;;;;;;16.80;15.03;;;6.80;99.90;;;;;;5034557;28;20160;-68
2023/04/21 00:21:50;;;;;;;18.27;16.33;;;6.70;99.90;;;;;;5034516;28;20877;-68
2023/04/21 00:24:16;;;;;;;19.50;17.50;;;6.70;99.90;;;;;;5034512;28;20465;-68
2023/04/21 00:26:41;;;;;;;15.63;13.97;;;6.70;99.90;;;;;;5034418;28;20906;-69
2023/04/21 00:29:07;;;;;;;15.77;14.17;;;6.80;99.90;;;;;;5032965;28;20182;-68
2023/04/21 00:31:33;;;;;;;17.13;14.90;;;6.90;99.90;;;;;;5016541;28;20225;-69
2023/04/21 00:33:58;;;;;;;14.77;13.27;;;6.90;99.90;;;;;;5034648;28;20181;-68
2023/04/21 00:36:26;;;;;;;16.17;14.37;;;6.90;99.90;;;;;;5032976;28;20621;-68
2023/04/21 00:38:52;;;;;;;18.33;15.63;;;6.90;99.90;;;;;;5016589;28;20187;-68
2023/04/21 00:41:18;;;;;;;16.60;13.90;;;6.90;99.90;;;;;;5034381;28;20420;-69
2023/04/21 00:44:04;;;;;;;16.60;14.40;;;6.90;99.90;;;;;;5016185;28;20167;-68
2023/04/21 00:46:30;;;;;;;14.67;13.17;;;6.90;99.90;;;;;;5033784;28;20167;-67
2023/04/21 00:48:57;;;;;;;16.10;14.40;;;6.90;99.90;;;;;;5034392;28;20429;-68
2023/04/21 00:51:25;;;;;;;17.73;15.33;;;6.90;99.90;;;;;;5016175;28;20196;-69
2023/04/21 00:53:51;;;;;;;16.97;15.27;;;6.90;99.90;;;;;;5016199;28;20499;-68
2023/04/21 00:56:17;;;;;;;17.60;15.13;;;6.90;99.90;;;;;;5023200;28;20902;-68
2023/04/21 00:58:44;;;;;;;21.70;17.23;;;6.90;99.90;;;;;;5013761;28;20663;-68
2023/04/21 01:01:11;;;;;;;21.40;18.07;;;7.00;99.90;;;;;;5014163;28;20435;-69
2023/04/21 01:03:36;;;;;;;18.50;16.10;;;7.00;99.90;;;;;;5029002;28;20414;-68
2023/04/21 01:06:02;;;;;;;19.03;16.87;;;7.00;99.90;;;;;;5021148;28;20782;-68
2023/04/21 01:08:28;;;;;;;21.77;18.90;;;7.00;99.90;;;;;;5013783;28;20173;-68
2023/04/21 01:10:53;;;;;;;22.10;19.27;;;6.90;99.90;;;;;;5013563;28;20207;-68
2023/04/21 01:13:21;;;;;;;16.67;14.93;;;6.90;99.90;;;;;;4996173;28;20223;-69
2023/04/21 01:15:47;;;;;;;21.93;19.57;;;7.00;99.90;;;;;;5013770;28;20218;-67
2023/04/21 01:18:13;;;;;;;19.07;17.07;;;7.00;99.90;;;;;;5013633;28;20409;-68
2023/04/21 01:20:39;;;;;;;18.00;16.07;;;7.00;99.90;;;;;;5013796;28;20423;-68
2023/04/21 01:23:04;;;;;;;16.43;14.73;;;7.00;99.90;;;;;;5004648;28;20480;-67
2023/04/21 01:25:30;;;;;;;19.93;17.80;;;7.00;99.90;;;;;;5033685;28;20679;-68
2023/04/21 01:27:56;;;;;;;21.20;17.83;;;7.00;99.90;;;;;;5031787;28;20206;-68
2023/04/21 01:30:21;;;;;;;21.00;17.70;;;7.00;99.90;;;;;;5033404;28;20193;-68
2023/04/21 01:32:47;;;;;;;17.67;15.80;;;6.90;99.90;;;;;;5031811;28;20213;-68
2023/04/21 01:35:12;;;;;;;18.43;16.30;;;7.00;99.90;;;;;;5033426;28;20554;-68
2023/04/21 01:37:38;;;;;;;20.70;17.20;;;6.90;99.90;;;;;;5033136;28;20562;-68
2023/04/21 01:40:07;;;;;;;17.30;15.37;;;7.00;99.90;;;;;;5033216;28;20792;-68
2023/04/21 01:42:35;;;;;;;19.07;17.07;;;7.00;99.90;;;;;;5033255;28;20836;-68
2023/04/21 01:45:01;;;;;;;18.17;15.70;;;7.00;99.90;;;;;;5033506;28;20402;-68
2023/04/21 01:47:27;;;;;;;18.80;16.80;;;6.90;99.90;;;;;;5015417;28;20984;-68
2023/04/21 01:49:52;;;;;;;20.53;17.70;;;6.90;99.90;;;;;;5033162;28;20423;-68
2023/04/21 01:52:18;;;;;;;20.73;15.33;;;6.90;99.90;;;;;;5031753;28;20167;-68
2023/04/21 01:54:43;;;;;;;17.57;15.47;;;6.80;99.90;;;;;;5033127;28;20168;-68
2023/04/21 01:57:09;;;;;;;16.67;14.87;;;6.70;99.90;;;;;;5033268;28;20194;-68
2023/04/21 01:59:36;;;;;;;18.87;16.70;;;6.70;99.90;;;;;;5015390;28;20172;-67
2023/04/21 02:02:01;;;;;;;19.40;16.70;;;6.70;99.90;;;;;;5032813;28;20190;-68
2023/04/21 02:04:27;;;;;;;18.30;16.03;;;6.70;99.90;;;;;;5033176;28;20433;-68
2023/04/21 02:06:52;;;;;;;19.87;16.67;;;6.60;99.90;;;;;;5015425;28;20172;-69
2023/04/21 02:09:18;;;;;;;18.53;15.53;;;6.60;99.90;;;;;;5033273;28;20254;-68
2023/04/21 02:11:44;;;;;;;18.50;16.50;;;6.60;99.90;;;;;;5032746;28;20203;-67
2023/04/21 02:14:09;;;;;;;17.47;15.50;;;6.60;99.90;;;;;;5014952;28;20631;-68
2023/04/21 02:16:35;;;;;;;18.10;14.90;;;6.60;99.90;;;;;;5032985;28;20191;-68
2023/04/21 02:19:01;;;;;;;23.10;16.83;;;6.60;99.90;;;;;;5032539;28;20240;-68
2023/04/21 02:21:26;;;;;;;22.10;17.70;;;6.50;99.90;;;;;;5018068;28;20275;-68
2023/04/21 02:23:52;;;;;;;23.27;19.80;;;6.50;99.90;;;;;;5036636;28;20485;-68
2023/04/21 02:26:18;;;;;;;22.90;17.07;;;6.50;99.90;;;;;;5037702;28;20635;-69
2023/04/21 02:28:44;;;;;;;19.30;16.73;;;6.50;99.90;;;;;;5036687;28;20176;-67
2023/04/21 02:31:09;;;;;;;18.70;16.57;;;6.40;99.90;;;;;;5036559;28;20426;-68
2023/04/21 02:33:35;;;;;;;18.40;16.40;;;6.30;99.90;;;;;;5036488;28;20225;-68
2023/04/21 02:36:01;;;;;;;17.77;15.87;;;6.30;99.90;;;;;;5036495;28;20183;-68
2023/04/21 02:38:26;;;;;;;21.90;18.23;;;6.20;99.90;;;;;;5036802;28;20603;-68
2023/04/21 02:40:52;;;;;;;18.40;16.50;;;6.10;99.90;;;;;;5018782;28;20557;-68
2023/04/21 02:43:17;;;;;;;18.03;15.37;;;6.00;99.90;;;;;;5036296;28;20246;-68
2023/04/21 02:45:43;;;;;;;21.37;16.93;;;6.00;99.90;;;;;;5036441;28;20167;-68
2023/04/21 02:48:08;;;;;;;23.10;20.60;;;6.10;99.90;;;;;;5036246;28;20168;-68
2023/04/21 02:50:35;;;;;;;23.00;18.53;;;6.20;99.90;;;;;;5036146;28;20214;-68
2023/04/21 02:53:00;;;;;;;24.47;19.87;;;6.30;99.90;;;;;;5036351;28;20175;-68
2023/04/21 02:55:26;;;;;;;23.20;20.23;;;6.30;99.90;;;;;;5036523;28;21011;-67
2023/04/21 02:57:51;;;;;;;23.37;19.57;;;6.30;99.90;;;;;;5036173;28;20246;-68
2023/04/21 03:00:17;;;;;;;22.63;19.57;;;6.30;99.90;;;;;;5036547;28;20535;-67
2023/04/21 03:02:43;;;;;;;18.77;16.77;;;6.30;99.90;;;;;;5029848;28;20176;-69
2023/04/21 03:05:09;;;;;;;23.13;18.07;;;6.30;99.90;;;;;;5018266;28;20166;-68
2023/04/21 03:07:35;;;;;;;20.77;18.23;;;6.30;99.90;;;;;;5036017;28;20402;-68
2023/04/21 03:10:01;;;;;;;25.70;21.10;;;6.10;99.90;;;;;;5036075;28;20209;-68
2023/04/21 03:12:26;;;;;;;23.83;20.63;;;6.00;99.90;;;;;;5036437;28;20859;-68
2023/04/21 03:14:52;;;;;;;30.80;23.73;;;6.00;99.90;;;;;;5034437;28;20171;-69
2023/04/21 03:17:17;;;;;;;31.10;22.17;;;5.90;99.90;;;;;;5034328;28;20199;-69
2023/04/21 03:19:43;;;;;;;28.60;23.20;;;5.90;99.90;;;;;;5035997;28;20246;-68
2023/04/21 03:22:08;;;;;;;28.07;20.40;;;5.90;99.90;;;;;;5036033;28;20167;-69
2023/04/21 03:24:34;;;;;;;26.23;21.70;;;6.10;99.90;;;;;;5035978;28;20218;-68
2023/04/21 03:27:01;;;;;;;23.40;20.13;;;6.10;99.90;;;;;;5034062;28;20175;-69
2023/04/21 03:29:26;;;;;;;21.70;18.10;;;6.10;99.90;;;;;;5035459;28;20168;-69
2023/04/21 03:31:52;;;;;;;26.57;20.20;;;6.20;99.90;;;;;;5033585;28;20438;-69
2023/04/21 03:34:18;;;;;;;21.57;17.03;;;6.20;99.90;;;;;;5035205;28;20195;-68
2023/04/21 03:36:43;;;;;;;21.10;18.37;;;6.20;99.90;;;;;;5035492;28;20725;-68
2023/04/21 03:39:09;;;;;;;26.40;21.87;;;6.20;99.90;;;;;;5017939;28;20164;-68
2023/04/21 03:41:34;;;;;;;19.17;17.10;;;6.20;99.90;;;;;;5035329;28;20237;-67
2023/04/21 03:44:00;;;;;;;24.03;20.17;;;6.30;99.90;;;;;;5035220;28;20258;-68
2023/04/21 03:46:25;;;;;;;23.17;19.87;;;6.30;99.90;;;;;;5035401;28;20175;-69
2023/04/21 03:48:51;;;;;;;30.90;22.70;;;6.30;99.90;;;;;;5035219;28;20639;-68
2023/04/21 03:51:16;;;;;;;25.10;20.20;;;6.30;99.90;;;;;;5035286;28;20269;-68
2023/04/21 03:53:42;;;;;;;33.93;24.73;;;6.20;99.90;;;;;;5035150;28;20226;-69
2023/04/21 03:56:08;;;;;;;33.57;24.30;;;6.20;99.90;;;;;;5035000;28;20240;-68
2023/04/21 03:58:34;;;;;;;27.63;22.30;;;6.30;99.90;;;;;;5017392;28;20166;-69
2023/04/21 04:00:59;;;;;;;26.00;21.23;;;6.30;99.90;;;;;;5017270;28;20230;-68
2023/04/21 04:03:25;;;;;;;25.90;20.63;;;6.30;99.90;;;;;;5035004;28;20501;-68
2023/04/21 04:05:51;;;;;;;23.27;19.23;;;6.30;99.90;;;;;;5034947;28;20227;-68
2023/04/21 04:08:17;;;;;;;25.10;20.00;;;6.40;99.90;;;;;;5034861;28;20226;-68
2023/04/21 04:10:42;;;;;;;29.87;23.57;;;6.60;99.90;;;;;;5034513;28;20438;-68
2023/04/21 04:13:08;;;;;;;31.93;23.73;;;6.50;99.90;;;;;;5034415;28;20535;-68
2023/04/21 04:15:34;;;;;;;27.23;22.60;;;6.60;99.90;;;;;;5017027;28;20204;-69
2023/04/21 04:18:00;;;;;;;28.37;22.93;;;6.60;99.90;;;;;;5016917;28;20410;-69
2023/04/21 04:20:26;;;;;;;27.23;22.70;;;6.60;99.90;;;;;;5016854;28;20222;-69
2023/04/21 04:22:51;;;;;;;30.50;23.07;;;6.70;99.90;;;;;;5016886;28;20469;-69
2023/04/21 04:25:17;;;;;;;30.90;23.13;;;6.70;99.90;;;;;;5016923;28;20647;-68
2023/04/21 04:27:43;;;;;;;24.30;20.50;;;6.80;99.90;;;;;;5016682;28;20163;-69
2023/04/21 04:30:10;;;;;;;44.83;32.00;;;6.80;99.90;;;;;;5032829;28;20191;-69
2023/04/21 04:32:38;;;;;;;24.90;20.60;;;6.80;99.90;;;;;;5016222;28;20410;-69
2023/04/21 04:35:05;;;;;;;36.40;27.33;;;6.80;99.90;;;;;;5016449;28;20406;-69
2023/04/21 04:37:33;;;;;;;26.67;20.93;;;6.80;99.90;;;;;;5016610;28;20422;-68
2023/04/21 04:39:59;;;;;;;23.90;19.23;;;6.70;99.90;;;;;;5016523;28;20459;-68
2023/04/21 04:42:24;;;;;;;26.13;20.67;;;6.80;99.90;;;;;;5023258;28;20460;-69
2023/04/21 04:44:53;;;;;;;30.00;22.23;;;6.80;99.90;;;;;;5022797;28;20422;-68
2023/04/21 04:47:19;;;;;;;25.90;21.60;;;6.80;99.90;;;;;;5016133;28;20182;-68
2023/04/21 04:49:45;;;;;;;30.40;23.90;;;6.90;99.90;;;;;;5034200;28;20417;-68
2023/04/21 04:52:11;;;;;;;23.00;19.57;;;6.90;99.90;;;;;;5016216;28;20178;-68
2023/04/21 04:54:37;;;;;;;27.87;20.60;;;7.00;99.90;;;;;;5018661;28;20781;-69
2023/04/21 04:57:02;;;;;;;24.47;19.13;;;7.00;99.90;;;;;;5016283;28;20215;-69
2023/04/21 04:59:29;;;;;;;23.60;19.97;;;7.10;99.90;;;;;;5033834;28;20173;-68
2023/04/21 05:01:56;;;;;;;24.07;20.17;;;7.10;99.90;;;;;;5016072;28;20192;-69
2023/04/21 05:04:22;;;;;;;26.70;21.00;;;7.20;99.90;;;;;;5015842;28;20398;-69
2023/04/21 05:06:47;;;;;;;25.00;19.47;;;7.20;99.90;;;;;;5015939;28;21079;-69
2023/04/21 05:09:13;;;;;;;27.73;24.47;;;7.20;99.90;;;;;;5014067;28;20493;-69
2023/04/21 05:11:38;;;;;;;29.30;24.20;;;7.10;99.90;;;;;;5012541;28;20681;-69
2023/04/21 05:14:04;;;;;;;26.60;23.50;;;7.20;99.90;;;;;;5012439;28;20258;-69
2023/04/21 05:16:30;;;;;;;21.83;19.57;;;7.30;99.90;;;;;;5013801;28;20189;-68
2023/04/21 05:18:55;;;;;;;27.63;21.37;;;7.40;99.90;;;;;;5028615;28;20169;-68
2023/04/21 05:21:28;;;;;;;22.23;19.50;;;7.50;99.90;;;;;;5012553;28;20195;-69
2023/04/21 05:23:57;;;;;;;28.07;24.90;;;7.60;99.90;;;;;;5028690;28;20176;-67
2023/04/21 05:26:28;;;;;;;29.10;23.97;;;7.60;99.90;;;;;;5015592;28;20415;-68
2023/04/21 05:28:55;;;;;;;30.40;27.10;;;7.70;99.90;;;;;;5015743;28;20415;-68
2023/04/21 05:31:21;;;;;;;26.13;23.37;;;7.50;99.90;;;;;;5015556;28;20447;-69
2023/04/21 05:33:47;;;;;;;27.17;22.27;;;7.60;99.90;;;;;;5033473;28;20494;-69
2023/04/21 05:36:13;;;;;;;24.93;20.97;;;7.70;99.90;;;;;;5015474;28;20508;-69
2023/04/21 05:38:38;;;;;;;25.00;22.40;;;7.60;99.90;;;;;;5015471;28;20672;-68
2023/04/21 05:41:04;;;;;;;25.50;21.90;;;7.40;99.90;;;;;;5015483;28;20188;-68
2023/04/21 05:43:33;;;;;;;25.10;22.40;;;7.50;99.90;;;;;;5015643;28;20168;-67
2023/04/21 05:46:00;;;;;;;25.60;22.23;;;7.80;99.90;;;;;;5033305;28;20411;-68
2023/04/21 05:48:25;;;;;;;29.80;23.87;;;7.90;99.90;;;;;;5031565;28;20943;-68
2023/04/21 05:50:51;;;;;;;24.60;21.00;;;7.80;99.90;;;;;;5015526;28;20428;-68
2023/04/21 05:53:17;;;;;;;24.43;21.83;;;7.80;99.90;;;;;;5015251;28;20219;-69
2023/04/21 05:55:42;;;;;;;27.93;24.90;;;7.70;99.90;;;;;;5014955;28;20700;-69
2023/04/21 05:58:08;;;;;;;26.70;22.57;;;7.50;99.90;;;;;;5015508;28;20190;-69
2023/04/21 06:00:33;;;;;;;26.77;21.50;;;7.70;99.90;;;;;;5015347;28;20190;-69
2023/04/21 06:02:59;;;;;;;43.97;32.77;;;7.90;99.90;;;;;;5015024;28;20177;-69
2023/04/21 06:05:25;;;;;;;37.53;29.80;;;8.10;99.90;;;;;;5015187;28;20179;-67
2023/04/21 06:07:50;;;;;;;27.60;24.00;;;8.20;99.90;;;;;;5015153;28;20181;-69
2023/04/21 06:10:17;;;;;;;31.40;26.33;;;8.30;99.90;;;;;;5031933;28;20756;-73
2023/04/21 06:12:42;;;;;;;30.60;24.40;;;8.30;99.90;;;;;;5015405;28;20189;-74
2023/04/21 06:15:08;;;;;;;27.90;23.73;;;8.40;99.90;;;;;;5015933;28;20432;-70
2023/04/21 06:17:34;;;;;;;30.20;24.93;;;8.60;99.90;;;;;;5014827;28;20171;-69
2023/04/21 06:19:59;;;;;;;27.93;21.50;;;8.60;99.90;;;;;;5015346;28;20486;-68
2023/04/21 06:22:26;;;;;;;25.83;22.60;;;8.70;99.90;;;;;;5015334;28;20180;-71
2023/04/21 06:24:52;;;;;;;24.53;21.63;;;8.50;99.90;;;;;;5015617;28;20170;-70
2023/04/21 06:27:18;;;;;;;29.30;25.77;;;8.30;99.90;;;;;;5015248;28;20406;-71
2023/04/21 06:29:43;;;;;;;26.57;22.67;;;8.50;99.90;;;;;;5014841;28;20258;-69
2023/04/21 06:32:09;;;;;;;28.50;23.13;;;8.70;99.90;;;;;;5014887;28;20172;-70
2023/04/21 06:34:35;;;;;;;28.70;24.67;;;8.70;99.90;;;;;;5014772;28;20177;-70
2023/04/21 06:37:01;;;;;;;24.50;21.83;;;8.80;99.90;;;;;;5014731;28;20536;-71
2023/04/21 06:39:27;;;;;;;27.97;24.73;;;9.00;99.90;;;;;;5014581;28;20174;-72
2023/04/21 06:41:52;;;;;;;26.40;21.93;;;9.10;99.90;;;;;;5014853;28;20276;-70
2023/04/21 06:44:18;;;;;;;27.00;21.53;;;8.80;99.90;;;;;;5014968;28;20565;-72
2023/04/21 06:46:44;;;;;;;24.57;21.97;;;8.50;99.90;;;;;;5015230;28;20673;-69
2023/04/21 06:49:10;;;;;;;25.20;22.40;;;8.50;99.90;;;;;;5024380;28;20175;-69
2023/04/21 06:51:36;;;;;;;25.23;22.53;;;8.40;99.90;;;;;;4995210;28;20202;-73
2023/04/21 06:54:02;;;;;;;27.87;23.80;;;8.50;99.90;;;;;;5011268;28;20470;-73
2023/04/21 06:56:28;;;;;;;26.13;22.97;;;8.90;99.90;;;;;;5014691;28;20210;-73
2023/04/21 06:58:54;;;;;;;27.27;23.90;;;9.20;99.90;;;;;;5014660;28;20418;-73
2023/04/21 07:01:20;;;;;;;23.10;20.10;;;9.30;99.90;;;;;;5010796;28;20462;-73
2023/04/21 07:03:46;;;;;;;26.73;23.83;;;9.30;99.90;;;;;;5011233;28;20927;-71
2023/04/21 07:06:11;;;;;;;27.63;24.73;;;9.20;99.90;;;;;;5011402;28;20218;-70
2023/04/21 07:08:37;;;;;;;29.70;24.50;;;9.40;99.90;;;;;;5013978;28;20183;-70
2023/04/21 07:11:03;;;;;;;26.30;23.30;;;9.40;99.90;;;;;;5016260;28;20210;-72
2023/04/21 07:13:29;;;;;;;29.00;24.27;;;9.40;99.90;;;;;;5014802;28;20510;-69
2023/04/21 07:15:55;;;;;;;25.90;23.27;;;9.40;99.90;;;;;;4998295;28;20197;-71
2023/04/21 07:18:20;;;;;;;26.40;22.90;;;9.20;99.90;;;;;;5014593;28;20190;-71
2023/04/21 07:20:46;;;;;;;32.00;27.83;;;8.60;99.90;;;;;;5015132;28;20462;-71
2023/04/21 07:23:12;;;;;;;28.23;23.47;;;8.70;99.90;;;;;;5032261;28;20258;-71
2023/04/21 07:25:37;;;;;;;24.63;21.73;;;9.00;99.90;;;;;;5015512;28;20178;-72
2023/04/21 07:28:03;;;;;;;29.10;24.50;;;9.00;99.90;;;;;;5015474;28;20226;-73
2023/04/21 07:30:29;;;;;;;26.40;23.50;;;9.10;99.90;;;;;;5016594;28;20195;-70
2023/04/21 07:32:56;;;;;;;24.63;22.00;;;9.10;99.90;;;;;;5018683;28;20406;-71
2023/04/21 07:35:22;;;;;;;24.20;21.60;;;9.00;99.90;;;;;;5017511;28;20409;-68
2023/04/21 07:37:47;;;;;;;25.40;21.43;;;9.20;99.90;;;;;;5017778;28;20417;-67
2023/04/21 07:40:13;;;;;;;22.90;20.47;;;9.50;99.90;;;;;;5035259;28;20197;-66
2023/04/21 07:42:39;;;;;;;28.40;22.53;;;9.30;99.90;;;;;;5017706;28;20164;-72
2023/04/21 07:45:05;;;;;;;24.37;21.87;;;9.20;99.90;;;;;;5017713;28;20497;-72
2023/04/21 07:47:31;;;;;;;28.47;23.60;;;9.40;99.90;;;;;;5017405;28;20318;-71
2023/04/21 07:49:57;;;;;;;24.03;21.53;;;9.70;99.90;;;;;;5017546;28;20479;-69
2023/04/21 07:52:22;;;;;;;21.87;19.70;;;9.60;99.90;;;;;;5018291;28;20425;-71
2023/04/21 07:54:48;;;;;;;22.50;19.97;;;9.70;99.90;;;;;;5017633;28;20183;-68
2023/04/21 07:57:14;;;;;;;23.83;20.40;;;10.10;99.90;;;;;;5017430;28;20192;-67
2023/04/21 07:59:40;;;;;;;23.70;21.27;;;10.20;99.90;;;;;;5018006;28;20217;-70
2023/04/21 08:02:05;;;;;;;22.83;20.43;;;10.40;99.90;;;;;;5017551;28;20906;-69
2023/04/21 08:04:31;;;;;;;20.83;18.77;;;9.90;99.90;;;;;;5017029;28;20544;-69
2023/04/21 08:06:57;;;;;;;22.43;19.47;;;9.70;99.90;;;;;;5016971;28;20172;-68
2023/04/21 08:09:22;;;;;;;20.13;17.90;;;9.70;99.90;;;;;;5016705;28;20580;-69
2023/04/21 08:11:48;;;;;;;20.80;17.57;;;9.80;99.90;;;;;;5016763;28;20802;-70
2023/04/21 08:14:14;;;;;;;19.43;17.40;;;10.10;99.90;;;;;;5017043;28;20178;-70
2023/04/21 08:16:41;;;;;;;19.80;17.60;;;10.20;99.90;;;;;;5016968;28;20237;-69
2023/04/21 08:19:07;;;;;;;19.20;17.20;;;10.10;99.90;;;;;;5016431;28;20179;-69
2023/04/21 08:21:33;;;;;;;18.47;16.50;;;10.00;99.90;;;;;;5016845;28;20488;-69
2023/04/21 08:23:59;;;;;;;22.83;19.93;;;10.10;99.90;;;;;;5016485;28;20408;-67
2023/04/21 08:26:25;;;;;;;20.27;18.17;;;10.40;99.90;;;;;;5017038;28;20190;-67
2023/04/21 08:28:51;;;;;;;20.63;18.43;;;10.60;99.90;;;;;;5016990;28;20433;-69
2023/04/21 08:31:18;;;;;;;21.57;19.30;;;10.50;99.90;;;;;;5016874;28;20489;-68
2023/04/21 08:33:44;;;;;;;21.33;19.03;;;10.50;99.90;;;;;;5016606;28;20405;-67
2023/04/21 08:36:10;;;;;;;21.03;18.87;;;10.60;99.90;;;;;;5016253;28;20496;-68
2023/04/21 08:38:42;;;;;;;19.47;17.20;;;10.50;99.90;;;;;;5016250;28;20406;-67
2023/04/21 08:41:08;;;;;;;19.10;17.10;;;10.40;99.90;;;;;;5016598;28;20196;-69
2023/04/21 08:43:34;;;;;;;17.90;16.10;;;10.60;99.90;;;;;;5016401;28;20415;-71
2023/04/21 08:46:04;;;;;;;19.73;17.83;;;10.90;99.90;;;;;;5017365;28;20831;-72
2023/04/21 08:48:34;;;;;;;18.60;16.30;;;11.10;99.90;;;;;;5015807;28;20204;-73
2023/04/21 08:51:01;;;;;;;18.10;16.13;;;11.30;99.90;;;;;;5015979;28;20456;-71
2023/04/21 08:53:27;;;;;;;17.63;15.50;;;11.30;99.90;;;;;;5016128;28;20929;-71
2023/04/21 08:55:55;;;;;;;18.70;15.80;;;11.50;99.90;;;;;;5016206;28;20501;-70
2023/04/21 08:58:23;;;;;;;16.37;14.63;;;11.70;99.90;;;;;;5016200;28;20714;-68
2023/04/21 09:00:49;;;;;;;15.70;14.10;;;11.80;99.90;;;;;;5000015;28;20438;-68
2023/04/21 09:03:22;;;;;;;12.93;11.60;;;12.00;99.90;;;;;;5015930;28;20400;-68
2023/04/21 09:06:00;;;;;;;13.83;12.43;;;12.20;99.90;;;;;;5016109;28;20406;-70
2023/04/21 09:08:28;;;;;;;13.57;11.17;;;12.30;99.90;;;;;;5015984;28;20411;-71
2023/04/21 09:10:54;;;;;;;12.63;11.43;;;12.20;99.90;;;;;;5012053;28;20469;-67
2023/04/21 09:13:22;;;;;;;10.90;9.80;;;12.30;99.90;;;;;;5012692;28;20417;-71
2023/04/21 09:15:51;;;;;;;10.80;9.70;;;12.40;99.90;;;;;;5012801;28;20449;-70
2023/04/21 09:18:16;;;;;;;10.83;9.77;;;12.30;99.90;;;;;;5014045;28;20475;-71
2023/04/21 09:20:44;;;;;;;11.80;10.60;;;12.40;99.90;;;;;;5029310;28;20509;-69
2023/04/21 09:23:10;;;;;;;12.03;10.83;;;12.60;99.90;;;;;;5015654;28;20192;-69
2023/04/21 09:25:43;;;;;;;11.83;10.67;;;12.70;99.90;;;;;;5015702;28;20417;-67
2023/04/21 09:28:10;;;;;;;11.27;9.80;;;12.90;99.90;;;;;;5032086;28;20408;-70
2023/04/21 09:30:37;;;;;;;10.90;9.70;;;12.90;99.90;;;;;;5015007;28;20523;-70
2023/04/21 09:33:02;;;;;;;15.67;12.40;;;13.00;99.90;;;;;;5015833;28;20500;-72
2023/04/21 09:35:31;;;;;;;9.70;8.57;;;12.80;99.90;;;;;;5015434;28;20573;-70
2023/04/21 09:37:57;;;;;;;8.63;7.73;;;12.80;99.90;;;;;;5015490;28;20415;-68
2023/04/21 09:40:22;;;;;;;9.30;8.17;;;13.10;99.90;;;;;;5015147;28;20988;-69
2023/04/21 09:42:49;;;;;;;9.00;8.10;;;13.30;99.90;;;;;;5015588;28;20525;-70
2023/04/21 09:45:15;;;;;;;15.13;8.63;;;13.50;99.90;;;;;;5016008;28;20167;-71
2023/04/21 09:47:42;;;;;;;8.63;7.80;;;13.40;99.90;;;;;;5031697;28;20861;-70
2023/04/21 09:50:10;;;;;;;9.17;8.10;;;13.40;99.90;;;;;;5014988;28;20195;-69
2023/04/21 09:52:42;;;;;;;8.97;8.07;;;13.50;99.90;;;;;;5015282;28;20742;-68
2023/04/21 09:55:11;;;;;;;9.07;8.17;;;13.60;99.90;;;;;;5015066;28;20794;-69
2023/04/21 09:57:40;;;;;;;9.60;7.57;;;13.60;99.90;;;;;;5014960;28;20417;-69
2023/04/21 10:00:08;;;;;;;7.97;7.27;;;13.90;99.90;;;;;;5015131;28;20425;-69
2023/04/21 10:02:36;;;;;;;7.33;6.63;;;14.20;99.90;;;;;;5033171;28;20394;-69
2023/04/21 10:05:05;;;;;;;8.27;7.23;;;14.50;99.90;;;;;;5014718;28;20412;-69
2023/04/21 10:07:31;;;;;;;9.10;8.30;;;14.60;99.90;;;;;;5015254;28;20413;-69
2023/04/21 10:09:58;;;;;;;8.67;7.87;;;14.70;99.90;;;;;;5014661;28;20507;-68
2023/04/21 10:12:25;;;;;;;9.57;8.60;;;14.70;99.90;;;;;;5015110;28;20254;-70
2023/04/21 10:14:52;;;;;;;10.03;9.00;;;14.80;99.90;;;;;;5015299;28;20492;-68
2023/04/21 10:17:22;;;;;;;9.20;8.30;;;15.00;99.90;;;;;;5015287;28;20573;-69
2023/04/21 10:19:51;;;;;;;9.50;8.60;;;15.00;99.90;;;;;;5014727;28;20796;-68
2023/04/21 10:22:31;;;;;;;9.83;8.87;;;15.10;99.90;;;;;;5014774;28;20460;-70
2023/04/21 10:24:57;;;;;;;9.73;8.83;;;15.10;99.90;;;;;;5014787;28;20479;-70
2023/04/21 10:27:40;;;;;;;9.47;8.47;;;15.00;99.90;;;;;;5014830;28;20492;-69
2023/04/21 10:30:27;;;;;;;10.77;9.67;;;15.20;99.90;;;;;;5014890;28;20471;-70
2023/04/21 10:33:03;;;;;;;10.13;9.13;;;15.40;99.90;;;;;;5031174;28;20405;-68
2023/04/21 10:36:03;;;;;;;12.07;9.90;;;15.40;99.90;;;;;;5032243;28;20416;-68
2023/04/21 10:38:43;;;;;;;9.50;8.50;;;15.10;99.90;;;;;;5014613;28;20497;-67
2023/04/21 10:41:33;;;;;;;11.07;9.27;;;14.90;99.90;;;;;;5031919;28;20460;-69
2023/04/21 10:44:00;;;;;;;8.87;8.07;;;15.20;99.90;;;;;;5024784;28;20408;-70
2023/04/21 10:46:37;;;;;;;11.63;10.43;;;15.40;99.90;;;;;;5015371;28;20439;-71
2023/04/21 10:49:30;;;;;;;9.93;8.93;;;15.30;99.90;;;;;;5031460;28;20949;-70
2023/04/21 10:51:58;;;;;;;12.20;10.90;;;15.80;99.90;;;;;;5018307;28;20801;-71
2023/04/21 10:54:35;;;;;;;11.77;9.77;;;16.50;99.90;;;;;;5018258;28;20501;-70
2023/04/21 10:57:04;;;;;;;11.37;10.23;;;17.60;99.90;;;;;;5017958;28;20453;-70
2023/04/21 10:59:30;;;;;;;11.10;9.97;;;18.60;99.90;;;;;;5018348;28;20417;-70
2023/04/21 11:01:56;;;;;;;10.23;9.33;;;18.90;99.90;;;;;;5018231;28;20805;-70
2023/04/21 11:04:22;;;;;;;10.17;9.17;;;20.60;99.90;;;;;;5017831;28;20163;-71
2023/04/21 11:07:07;;;;;;;10.63;9.73;;;20.30;99.90;;;;;;5018157;28;20521;-71
2023/04/21 11:09:33;;;;;;;9.83;8.93;;;21.10;99.00;;;;;;5017838;28;20171;-71
2023/04/21 11:12:02;;;;;;;9.97;8.93;;;22.10;98.20;;;;;;5017882;28;20452;-70
2023/04/21 11:14:28;;;;;;;11.83;10.73;;;21.90;96.90;;;;;;5017911;28;20413;-71
2023/04/21 11:16:53;;;;;;;9.63;8.83;;;20.50;98.90;;;;;;5012575;28;20481;-71
2023/04/21 11:19:23;;;;;;;10.30;9.30;;;22.20;97.20;;;;;;5014726;28;20426;-71
2023/04/21 11:21:49;;;;;;;8.87;8.07;;;22.60;96.50;;;;;;5014648;28;20567;-71
2023/04/21 11:24:15;;;;;;;8.77;8.00;;;23.50;95.00;;;;;;5017792;28;20425;-71
2023/04/21 11:26:43;;;;;;;9.67;8.80;;;21.40;96.90;;;;;;5017953;28;20175;-71
2023/04/21 11:29:10;;;;;;;10.10;9.10;;;20.80;97.50;;;;;;5016280;28;20174;-71
2023/04/21 11:31:38;;;;;;;9.60;8.70;;;20.00;98.30;;;;;;5018126;28;20460;-71
2023/04/21 11:34:05;;;;;;;9.87;8.87;;;20.40;98.50;;;;;;5017343;28;20984;-72
2023/04/21 11:36:35;;;;;;;9.27;8.37;;;21.50;97.80;;;;;;5018119;28;20446;-72
2023/04/21 11:39:07;;;;;;;9.87;8.17;;;21.50;97.30;;;;;;5018416;28;20820;-71
2023/04/21 11:41:33;;;;;;;8.13;7.40;;;22.30;97.10;;;;;;5017541;28;20780;-69
2023/04/21 11:43:58;;;;;;;8.97;8.23;;;23.70;94.90;;;;;;5035473;28;20484;-71
2023/04/21 11:46:26;;;;;;;7.50;6.87;;;22.20;94.90;;;;;;5035407;28;20159;-71
2023/04/21 11:49:06;;;;;;;10.53;9.43;;;22.50;96.20;;;;;;5017781;28;20175;-71
2023/04/21 11:51:42;;;;;;;9.57;8.73;;;22.70;95.70;;;;;;5017856;28;20981;-71
2023/04/21 11:54:10;;;;;;;9.60;8.50;;;23.30;94.70;;;;;;5016743;28;20418;-69
2023/04/21 11:56:40;;;;;;;10.80;9.70;;;22.20;94.50;;;;;;5034708;28;20446;-69
2023/04/21 11:59:07;;;;;;;8.70;7.83;;;21.60;96.40;;;;;;5017065;28;20409;-70
2023/04/21 12:01:33;;;;;;;8.73;7.87;;;21.80;96.30;;;;;;5017249;28;20495;-70
2023/04/21 12:03:58;;;;;;;7.83;7.13;;;21.80;96.00;;;;;;5017064;28;20402;-70
2023/04/21 12:06:28;;;;;;;8.53;7.73;;;22.30;95.10;;;;;;5017422;28;20206;-72
2023/04/21 12:09:02;;;;;;;7.80;6.67;;;22.50;94.80;;;;;;5017212;28;20643;-70
2023/04/21 12:11:28;;;;;;;8.30;7.47;;;22.50;95.20;;;;;;5050407;23;20567;-70
2023/04/21 12:13:58;;;;;;;9.87;8.70;;;24.00;93.90;;;;;;5053890;28;20402;-71
2023/04/21 12:16:28;;;;;;;7.83;7.13;;;22.80;93.20;;;;;;5052877;28;20436;-71
2023/04/21 12:18:55;;;;;;;8.40;7.70;;;23.60;94.70;;;;;;5053761;28;20893;-71
2023/04/21 12:21:25;;;;;;;8.23;7.30;;;25.60;92.10;;;;;;5052843;28;20508;-71
2023/04/21 12:23:51;;;;;;;7.80;7.10;;;25.30;90.30;;;;;;5054415;28;20773;-71
2023/04/21 12:26:17;;;;;;;7.93;7.30;;;26.10;89.70;;;;;;5034455;28;20409;-72
2023/04/21 12:28:43;;;;;;;8.27;6.60;;;25.00;90.30;;;;;;5035577;28;20374;-71
2023/04/21 12:31:08;;;;;;;7.80;7.20;;;24.90;90.80;;;;;;5052335;28;20684;-73
2023/04/21 12:33:34;;;;;;;6.13;5.63;;;24.20;90.60;;;;;;5053321;28;20444;-73
2023/04/21 12:36:00;;;;;;;7.63;6.73;;;24.30;91.70;;;;;;5035518;28;20222;-73
2023/04/21 12:38:25;;;;;;;7.27;6.67;;;24.40;90.80;;;;;;5044540;28;20284;-74
2023/04/21 12:40:51;;;;;;;7.67;6.97;;;24.00;91.10;;;;;;5033749;28;20602;-73